createdAt,value
2023-01-23T00:00:47.367Z,4.78
2023-01-23T00:03:13.784Z,4.77
2023-01-23T00:05:40.106Z,4.76
2023-01-23T00:08:06.468Z,4.75
2023-01-23T00:10:32.906Z,4.75
2023-01-23T00:12:59.333Z,4.74
2023-01-23T00:15:27.346Z,4.75
2023-01-23T00:17:53.828Z,4.75
2023-01-23T00:20:20.535Z,4.73
2023-01-23T00:22:47.013Z,4.73
2023-01-23T00:25:13.499Z,4.73
2023-01-23T00:27:39.883Z,4.73
2023-01-23T00:30:06.740Z,4.71
2023-01-23T00:32:33.224Z,4.69
2023-01-23T00:35:00.494Z,4.67
2023-01-23T00:37:26.821Z,4.64
2023-01-23T00:39:53.293Z,4.61
2023-01-23T00:42:19.617Z,4.57
2023-01-23T00:44:45.924Z,4.56
2023-01-23T00:47:12.926Z,4.52
2023-01-23T00:49:39.234Z,4.50
2023-01-23T00:52:05.580Z,4.47
2023-01-23T00:54:31.954Z,4.46
2023-01-23T00:56:58.356Z,4.45
2023-01-23T00:59:24.737Z,4.45
2023-01-23T01:01:51.164Z,4.46
2023-01-23T01:04:17.576Z,4.46
2023-01-23T01:06:43.950Z,4.48
2023-01-23T01:09:10.280Z,4.49
2023-01-23T01:11:36.638Z,4.51
2023-01-23T01:14:04.050Z,4.52
2023-01-23T01:16:30.699Z,4.52
2023-01-23T01:18:57.068Z,4.54
2023-01-23T01:21:23.422Z,4.56
2023-01-23T01:23:49.983Z,4.58
2023-01-23T01:26:16.374Z,4.61
2023-01-23T01:28:42.741Z,4.63
2023-01-23T01:31:12.977Z,4.66
2023-01-23T01:33:41.008Z,4.67
2023-01-23T01:36:16.751Z,4.68
2023-01-23T01:38:43.397Z,4.71
2023-01-23T01:41:10.543Z,4.70
2023-01-23T01:43:37.014Z,4.68
2023-01-23T01:46:15.831Z,4.68
2023-01-23T01:48:44.204Z,4.67
2023-01-23T01:51:20.715Z,4.67
2023-01-23T01:53:50.797Z,4.67
2023-01-23T01:56:18.955Z,4.67
2023-01-23T01:58:48.889Z,4.66
2023-01-23T02:01:15.916Z,4.67
2023-01-23T02:03:44.925Z,4.69
2023-01-23T02:06:11.769Z,4.70
2023-01-23T02:08:52.745Z,4.72
2023-01-23T02:11:19.596Z,4.74
2023-01-23T02:13:46.130Z,4.78
2023-01-23T02:16:17.801Z,4.81
2023-01-23T02:18:48.016Z,4.83
2023-01-23T02:21:17.002Z,4.86
2023-01-23T02:24:05.144Z,4.89
2023-01-23T02:26:36.660Z,4.92
2023-01-23T02:29:04.993Z,4.93
2023-01-23T02:31:31.626Z,4.94
2023-01-23T02:33:59.485Z,4.95
2023-01-23T02:36:28.891Z,4.96
2023-01-23T02:39:01.446Z,4.96
2023-01-23T02:41:30.979Z,4.98
2023-01-23T02:44:00.785Z,4.99
2023-01-23T02:46:27.309Z,4.99
2023-01-23T02:48:54.099Z,4.98
2023-01-23T02:51:22.162Z,4.98
2023-01-23T02:53:48.965Z,4.97
2023-01-23T02:56:16.219Z,4.97
2023-01-23T02:59:01.611Z,4.97
2023-01-23T03:01:28.126Z,4.97
2023-01-23T03:03:58.044Z,4.96
2023-01-23T03:06:24.503Z,4.97
2023-01-23T03:08:50.928Z,4.95
2023-01-23T03:11:18.808Z,4.96
2023-01-23T03:13:46.353Z,4.94
2023-01-23T03:16:13.036Z,4.93
2023-01-23T03:18:52.922Z,4.91
2023-01-23T03:21:21.130Z,4.88
2023-01-23T03:23:48.328Z,4.86
2023-01-23T03:26:15.422Z,4.82
2023-01-23T03:29:00.299Z,4.81
2023-01-23T03:31:26.647Z,4.81
2023-01-23T03:33:53.459Z,4.79
2023-01-23T03:36:20.981Z,4.79
2023-01-23T03:39:06.001Z,4.78
2023-01-23T03:41:32.386Z,4.80
2023-01-23T03:43:58.743Z,4.81
2023-01-23T03:46:25.177Z,4.82
2023-01-23T03:48:51.734Z,4.83
2023-01-23T03:51:18.113Z,4.86
2023-01-23T03:53:44.489Z,4.87
2023-01-23T03:56:10.916Z,4.90
2023-01-23T03:58:37.270Z,4.89
2023-01-23T04:01:08.518Z,4.91
2023-01-23T04:03:35.757Z,4.91
2023-01-23T04:06:02.292Z,4.93
2023-01-23T04:08:29.456Z,4.93
2023-01-23T04:11:04.060Z,4.94
2023-01-23T04:13:30.794Z,4.95
2023-01-23T04:15:57.255Z,4.95
2023-01-23T04:18:24.104Z,4.96
2023-01-23T04:20:50.525Z,4.97
2023-01-23T04:23:17.666Z,4.97
2023-01-23T04:25:44.339Z,4.98
2023-01-23T04:28:10.715Z,4.99
2023-01-23T04:30:37.219Z,5.00
2023-01-23T04:33:03.740Z,5.01
2023-01-23T04:35:30.409Z,5.04
2023-01-23T04:37:56.886Z,5.05
2023-01-23T04:40:23.338Z,5.07
2023-01-23T04:42:49.751Z,5.10
2023-01-23T04:45:16.393Z,5.10
2023-01-23T04:47:42.825Z,5.10
2023-01-23T04:50:09.800Z,5.12
2023-01-23T04:52:36.239Z,5.12
2023-01-23T04:55:02.643Z,5.13
2023-01-23T04:57:29.194Z,5.13
2023-01-23T04:59:55.629Z,5.13
2023-01-23T05:02:22.096Z,5.12
2023-01-23T05:04:48.596Z,5.11
2023-01-23T05:07:15.347Z,5.10
2023-01-23T05:09:42.102Z,5.09
2023-01-23T05:12:08.515Z,5.08
2023-01-23T05:14:34.978Z,5.06
2023-01-23T05:17:01.382Z,5.05
2023-01-23T05:19:27.817Z,5.04
2023-01-23T05:21:54.237Z,5.01
2023-01-23T05:24:20.669Z,5.00
2023-01-23T05:26:47.091Z,4.97
2023-01-23T05:29:13.542Z,4.94
2023-01-23T05:31:40.160Z,4.92
2023-01-23T05:34:06.572Z,4.89
2023-01-23T05:36:32.963Z,4.87
2023-01-23T05:38:59.399Z,4.84
2023-01-23T05:41:25.845Z,4.83
2023-01-23T05:43:52.271Z,4.82
2023-01-23T05:46:18.765Z,4.81
2023-01-23T05:48:49.218Z,4.82
2023-01-23T05:51:15.731Z,4.79
2023-01-23T05:53:42.210Z,4.78
2023-01-23T05:56:09.032Z,4.78
2023-01-23T05:58:35.353Z,4.77
2023-01-23T06:01:03.510Z,4.78
2023-01-23T06:03:30.005Z,4.79
2023-01-23T06:05:56.399Z,4.77
2023-01-23T06:08:23.011Z,4.78
2023-01-23T06:10:49.409Z,4.78
2023-01-23T06:13:15.910Z,4.79
2023-01-23T06:15:42.385Z,4.79
2023-01-23T06:18:09.173Z,4.79
2023-01-23T06:20:35.706Z,4.79
2023-01-23T06:23:02.177Z,4.78
2023-01-23T06:25:28.591Z,4.79
2023-01-23T06:27:55.161Z,4.78
2023-01-23T06:30:21.990Z,4.80
2023-01-23T06:32:48.618Z,4.80
2023-01-23T06:35:15.068Z,4.78
2023-01-23T06:37:41.807Z,4.78
2023-01-23T06:40:13.067Z,4.78
2023-01-23T06:42:40.708Z,4.77
2023-01-23T06:45:08.771Z,4.76
2023-01-23T06:47:35.817Z,4.75
2023-01-23T06:50:02.507Z,4.74
2023-01-23T06:52:29.727Z,4.73
2023-01-23T06:54:56.166Z,4.73
2023-01-23T06:57:23.025Z,4.72
2023-01-23T06:59:49.627Z,4.74
2023-01-23T07:02:16.401Z,4.75
2023-01-23T07:04:42.839Z,4.75
2023-01-23T07:07:09.178Z,4.75
2023-01-23T07:09:35.683Z,4.76
2023-01-23T07:12:02.018Z,4.75
2023-01-23T07:14:28.653Z,4.75
2023-01-23T07:16:55.547Z,4.75
2023-01-23T07:19:23.120Z,4.75
2023-01-23T07:21:49.533Z,4.77
2023-01-23T07:24:15.927Z,4.78
2023-01-23T07:26:42.317Z,4.79
2023-01-23T07:29:11.621Z,4.80
2023-01-23T07:31:38.172Z,4.80
2023-01-23T07:34:04.531Z,4.81
2023-01-23T07:36:31.137Z,4.82
2023-01-23T07:38:58.908Z,4.81
2023-01-23T07:41:25.666Z,4.82
2023-01-23T07:43:52.099Z,4.83
2023-01-23T07:46:18.592Z,4.84
2023-01-23T07:48:44.976Z,4.86
2023-01-23T07:51:12.088Z,4.86
2023-01-23T07:53:38.483Z,4.86
2023-01-23T07:56:06.159Z,4.88
2023-01-23T07:58:33.021Z,4.89
2023-01-23T08:01:00.012Z,4.90
2023-01-23T08:03:28.929Z,4.91
2023-01-23T08:05:55.542Z,4.92
2023-01-23T08:08:21.990Z,4.93
2023-01-23T08:10:48.333Z,4.94
2023-01-23T08:13:14.778Z,4.95
2023-01-23T08:15:41.185Z,4.96
2023-01-23T08:18:07.773Z,4.99
2023-01-23T08:20:34.292Z,5.02
2023-01-23T08:23:02.197Z,5.05
2023-01-23T08:25:28.865Z,5.08
2023-01-23T08:27:55.284Z,5.11
2023-01-23T08:30:22.168Z,5.13
2023-01-23T08:32:48.879Z,5.15
2023-01-23T08:35:15.592Z,5.18
2023-01-23T08:37:42.240Z,5.20
2023-01-23T08:40:09.607Z,5.20
2023-01-23T08:42:35.974Z,5.22
2023-01-23T08:45:02.302Z,5.22
2023-01-23T08:47:28.732Z,5.22
2023-01-23T08:49:55.079Z,5.24
2023-01-23T08:52:21.392Z,5.25
2023-01-23T08:54:47.939Z,5.27
2023-01-23T08:57:14.244Z,5.30
2023-01-23T08:59:42.473Z,5.32
2023-01-23T09:02:11.864Z,5.35
2023-01-23T09:04:38.310Z,5.38
2023-01-23T09:07:04.703Z,5.43
2023-01-23T09:09:31.156Z,5.47
2023-01-23T09:11:57.489Z,5.54
2023-01-23T09:14:23.967Z,5.60
2023-01-23T09:16:52.270Z,5.67
2023-01-23T09:19:18.736Z,5.70
2023-01-23T09:21:45.155Z,5.76
2023-01-23T09:24:11.638Z,5.80
2023-01-23T09:26:38.138Z,5.82
2023-01-23T09:29:04.549Z,5.86
2023-01-23T09:31:31.107Z,5.87
2023-01-23T09:33:57.752Z,5.89
2023-01-23T09:36:41.241Z,5.91
2023-01-23T09:39:08.719Z,5.94
2023-01-23T09:41:35.244Z,5.93
2023-01-23T09:44:36.919Z,5.95
2023-01-23T09:47:27.129Z,5.94
2023-01-23T09:50:00.524Z,5.95
2023-01-23T09:52:36.020Z,5.94
2023-01-23T09:55:02.519Z,5.93
2023-01-23T09:57:36.562Z,5.95
2023-01-23T10:00:30.066Z,5.97
2023-01-23T10:02:57.012Z,5.99
2023-01-23T10:05:40.339Z,6.01
2023-01-23T10:08:34.422Z,6.04
2023-01-23T10:11:16.082Z,6.07
2023-01-23T10:13:45.523Z,6.12
2023-01-23T10:16:15.114Z,6.18
2023-01-23T10:19:16.569Z,6.26
2023-01-23T10:21:51.764Z,6.33
2023-01-23T10:24:40.554Z,6.39
2023-01-23T10:27:38.857Z,6.43
2023-01-23T10:30:18.742Z,6.46
2023-01-23T10:32:56.220Z,6.47
2023-01-23T10:35:32.179Z,6.51
2023-01-23T10:38:13.950Z,6.50
2023-01-23T10:40:59.848Z,6.48
2023-01-23T10:43:27.207Z,6.48
2023-01-23T10:45:53.664Z,6.46
2023-01-23T10:48:32.281Z,6.45
2023-01-23T10:51:00.000Z,6.43
2023-01-23T10:53:26.575Z,6.44
2023-01-23T10:55:57.176Z,6.46
2023-01-23T10:58:33.053Z,6.50
2023-01-23T11:01:01.023Z,6.53
2023-01-23T11:03:35.672Z,6.57
2023-01-23T11:06:04.047Z,6.60
2023-01-23T11:08:38.876Z,6.64
2023-01-23T11:11:26.373Z,6.67
2023-01-23T11:14:25.254Z,6.71
2023-01-23T11:17:03.290Z,6.75
2023-01-23T11:19:32.196Z,6.78
2023-01-23T11:22:04.343Z,6.81
2023-01-23T11:24:41.020Z,6.83
2023-01-23T11:27:44.942Z,6.87
2023-01-23T11:30:29.823Z,6.92
2023-01-23T11:33:05.808Z,6.95
2023-01-23T11:35:50.745Z,6.95
2023-01-23T11:38:30.475Z,6.95
2023-01-23T11:40:57.380Z,6.94
2023-01-23T11:43:23.877Z,6.96
2023-01-23T11:45:50.201Z,6.96
2023-01-23T11:48:42.623Z,6.97
2023-01-23T11:51:18.995Z,6.98
2023-01-23T11:54:00.811Z,6.99
2023-01-23T11:56:43.814Z,7.01
2023-01-23T11:59:30.533Z,7.03
2023-01-23T12:02:21.607Z,7.02
2023-01-23T12:05:25.974Z,7.00
2023-01-23T12:08:22.103Z,6.96
2023-01-23T12:10:59.620Z,6.93
2023-01-23T12:13:44.408Z,6.89
2023-01-23T12:16:30.750Z,6.89
2023-01-23T12:19:24.814Z,6.89
2023-01-23T12:22:15.078Z,6.89
2023-01-23T12:24:51.221Z,6.91
2023-01-23T12:27:44.143Z,6.93
2023-01-23T12:30:34.172Z,6.97
2023-01-23T12:33:17.809Z,6.99
2023-01-23T12:35:56.731Z,7.02
2023-01-23T12:38:49.412Z,7.07
2023-01-23T12:41:36.285Z,7.10
2023-01-23T12:44:21.105Z,7.10
2023-01-23T12:46:53.858Z,7.11
2023-01-23T12:49:26.794Z,7.10
2023-01-23T12:52:00.868Z,7.07
2023-01-23T12:54:42.360Z,7.03
2023-01-23T12:57:10.913Z,6.99
2023-01-23T12:59:47.592Z,6.93
2023-01-23T13:02:34.274Z,6.86
2023-01-23T13:05:16.092Z,6.79
2023-01-23T13:07:50.476Z,6.74
2023-01-23T13:10:24.139Z,6.69
2023-01-23T13:12:55.925Z,6.67
2023-01-23T13:15:39.645Z,6.63
2023-01-23T13:18:22.256Z,6.60
2023-01-23T13:21:18.405Z,6.57
2023-01-23T13:23:44.865Z,6.55
2023-01-23T13:26:19.355Z,6.54
2023-01-23T13:28:51.442Z,6.53
2023-01-23T13:31:34.419Z,6.51
2023-01-23T13:34:14.903Z,6.50
2023-01-23T13:36:53.062Z,6.49
2023-01-23T13:39:23.532Z,6.47
2023-01-23T13:41:52.252Z,6.46
2023-01-23T13:44:41.626Z,6.44
2023-01-23T14:22:43.733Z,6.28
2023-01-23T14:25:17.368Z,6.26
2023-01-23T14:27:53.300Z,6.24
2023-01-23T14:30:26.686Z,6.23
2023-01-23T14:32:53.645Z,6.20
2023-01-23T14:35:33.097Z,6.20
2023-01-23T14:38:04.606Z,6.22
2023-01-23T14:40:43.112Z,6.21
2023-01-23T14:43:22.521Z,6.23
2023-01-23T14:45:57.052Z,6.24
2023-01-23T14:48:23.603Z,6.23
2023-01-23T14:50:50.244Z,6.21
2023-01-23T14:53:17.198Z,6.19
2023-01-23T14:55:49.610Z,6.17
2023-01-23T14:58:23.684Z,6.17
2023-01-23T15:00:52.137Z,6.15
2023-01-23T15:03:35.781Z,6.14
2023-01-23T15:06:05.726Z,6.11
2023-01-23T15:08:33.609Z,6.11
2023-01-23T15:11:01.734Z,6.09
2023-01-23T15:13:36.404Z,6.09
2023-01-23T15:16:06.499Z,6.08
2023-01-23T15:18:34.935Z,6.08
2023-01-23T15:21:03.682Z,6.06
2023-01-23T15:23:37.131Z,6.05
2023-01-23T15:26:24.486Z,6.05
2023-01-23T15:28:50.781Z,6.04
2023-01-23T15:31:31.251Z,6.05
2023-01-23T15:34:13.937Z,6.05
2023-01-23T15:36:59.047Z,6.04
2023-01-23T15:39:51.754Z,6.03
2023-01-23T15:42:18.042Z,6.01
2023-01-23T15:44:44.857Z,5.99
2023-01-23T15:47:11.472Z,5.98
2023-01-23T15:49:40.047Z,5.97
2023-01-23T15:52:20.385Z,5.96
2023-01-23T15:54:47.840Z,5.94
2023-01-23T15:57:14.632Z,5.92
2023-01-23T15:59:41.557Z,5.91
2023-01-23T16:02:29.085Z,5.89
2023-01-23T16:04:56.338Z,5.88
2023-01-23T16:07:31.312Z,5.89
2023-01-23T16:09:57.955Z,5.86
2023-01-23T16:12:28.800Z,5.86
2023-01-23T16:14:56.587Z,5.83
2023-01-23T16:17:23.382Z,5.81
2023-01-23T16:19:50.581Z,5.79
2023-01-23T16:22:26.701Z,5.78
2023-01-23T16:24:53.652Z,5.76
2023-01-23T16:27:27.057Z,5.75
2023-01-23T16:29:54.617Z,5.73
2023-01-23T16:32:21.116Z,5.72
2023-01-23T16:34:47.569Z,5.70
2023-01-23T16:37:16.523Z,5.70
2023-01-23T16:39:44.633Z,5.69
2023-01-23T16:42:18.570Z,5.68
2023-01-23T16:44:44.893Z,5.67
2023-01-23T16:47:11.232Z,5.66
2023-01-23T16:49:51.540Z,5.66
2023-01-23T16:52:20.565Z,5.63
2023-01-23T16:54:47.155Z,5.63
2023-01-23T16:57:20.062Z,5.62
2023-01-23T16:59:48.084Z,5.62
2023-01-23T17:02:22.097Z,5.62
2023-01-23T17:04:48.780Z,5.60
2023-01-23T17:07:17.177Z,5.60
2023-01-23T17:09:44.793Z,5.59
2023-01-23T17:12:28.207Z,5.59
2023-01-23T17:14:55.572Z,5.57
2023-01-23T17:17:49.253Z,5.57
2023-01-23T17:20:15.584Z,5.54
2023-01-23T17:22:42.739Z,5.53
2023-01-23T17:25:20.677Z,5.53
2023-01-23T17:28:00.015Z,5.52
2023-01-23T17:30:33.976Z,5.52
2023-01-23T17:33:00.387Z,5.52
2023-01-23T17:35:36.223Z,5.52
2023-01-23T17:38:03.670Z,5.51
2023-01-23T17:40:30.264Z,5.53
2023-01-23T17:42:56.987Z,5.53
2023-01-23T17:45:26.085Z,5.53
2023-01-23T17:47:55.077Z,5.54
2023-01-23T17:50:24.274Z,5.53
2023-01-23T17:52:52.079Z,5.53
2023-01-23T17:55:21.934Z,5.51
2023-01-23T17:57:49.449Z,5.48
2023-01-23T18:00:20.977Z,5.47
2023-01-23T18:03:01.292Z,5.46
2023-01-23T18:05:28.010Z,5.44
2023-01-23T18:07:54.640Z,5.41
2023-01-23T18:10:21.968Z,5.40
2023-01-23T18:13:16.436Z,5.39
2023-01-23T18:16:04.026Z,5.37
2023-01-23T18:18:35.570Z,5.36
2023-01-23T18:21:04.375Z,5.34
2023-01-23T18:23:32.574Z,5.32
2023-01-23T18:26:23.015Z,5.31
2023-01-23T18:29:06.114Z,5.30
2023-01-23T18:32:01.336Z,5.28
2023-01-23T18:34:41.740Z,5.28
2023-01-23T18:37:26.481Z,5.27
2023-01-23T18:40:29.198Z,5.26
2023-01-23T18:43:33.429Z,5.26
2023-01-23T18:45:59.971Z,5.24
2023-01-23T18:48:26.826Z,5.25
2023-01-23T18:51:03.176Z,5.22
2023-01-23T18:53:41.787Z,5.21
2023-01-23T18:56:34.381Z,5.21
2023-01-23T18:59:11.509Z,5.20
2023-01-23T19:01:52.223Z,5.19
2023-01-23T19:04:21.543Z,5.20
2023-01-23T19:06:48.245Z,5.18
2023-01-23T19:09:20.589Z,5.19
2023-01-23T19:12:02.315Z,5.19
2023-01-23T19:14:59.893Z,5.21
2023-01-23T19:17:41.258Z,5.22
2023-01-23T19:20:19.741Z,5.23
2023-01-23T19:22:52.589Z,5.22
2023-01-23T19:25:19.515Z,5.21
2023-01-23T19:27:52.583Z,5.23
2023-01-23T19:30:22.147Z,5.22
2023-01-23T19:32:49.508Z,5.22
2023-01-23T19:35:16.640Z,5.21
2023-01-23T19:37:45.042Z,5.21
2023-01-23T19:40:13.511Z,5.22
2023-01-23T19:42:52.346Z,5.22
2023-01-23T19:45:25.222Z,5.23
2023-01-23T19:47:53.306Z,5.22
2023-01-23T19:50:21.280Z,5.22
2023-01-23T19:52:48.895Z,5.20
2023-01-23T19:55:30.422Z,5.21
2023-01-23T19:57:56.945Z,5.19
2023-01-23T20:00:29.595Z,5.19
2023-01-23T20:02:56.367Z,5.18
2023-01-23T20:05:23.932Z,5.18
2023-01-23T20:07:50.698Z,5.17
2023-01-23T20:10:17.518Z,5.16
2023-01-23T20:12:52.364Z,5.16
2023-01-23T20:15:21.866Z,5.15
2023-01-23T20:17:48.594Z,5.14
2023-01-23T20:20:15.615Z,5.13
2023-01-23T20:22:43.397Z,5.14
2023-01-23T20:25:14.860Z,5.14
2023-01-23T20:27:41.907Z,5.14
2023-01-23T20:30:13.390Z,5.13
2023-01-23T20:32:40.092Z,5.14
2023-01-23T20:35:06.740Z,5.13
2023-01-23T20:37:33.171Z,5.12
2023-01-23T20:39:59.613Z,5.12
2023-01-23T20:42:26.008Z,5.11
2023-01-23T20:44:52.362Z,5.11
2023-01-23T20:47:18.839Z,5.10
2023-01-23T20:49:45.194Z,5.09
2023-01-23T20:52:29.785Z,5.09
2023-01-23T20:54:56.111Z,5.08
2023-01-23T20:57:22.464Z,5.07
2023-01-23T20:59:48.867Z,5.06
2023-01-23T21:02:24.276Z,5.05
2023-01-23T21:04:51.821Z,5.06
2023-01-23T21:07:21.180Z,5.06
2023-01-23T21:09:47.963Z,5.05
2023-01-23T21:12:14.654Z,5.05
2023-01-23T21:14:41.082Z,5.04
2023-01-23T21:17:08.861Z,5.01
2023-01-23T21:19:37.423Z,5.01
2023-01-23T21:22:05.922Z,5.00
2023-01-23T21:24:34.337Z,5.00
2023-01-23T21:27:02.538Z,4.98
2023-01-23T21:29:29.783Z,4.96
2023-01-23T21:31:57.605Z,4.95
2023-01-23T21:34:25.401Z,4.94
2023-01-23T21:36:52.084Z,4.94
2023-01-23T21:39:19.155Z,4.93
2023-01-23T21:41:45.672Z,4.93
2023-01-23T21:44:12.300Z,4.92
2023-01-23T21:46:39.050Z,4.93
2023-01-23T21:49:05.436Z,4.93
2023-01-23T21:51:32.424Z,4.92
2023-01-23T21:53:58.893Z,4.92
2023-01-23T21:56:25.567Z,4.93
2023-01-23T21:58:52.803Z,4.92
2023-01-23T22:01:41.050Z,4.94
2023-01-23T22:04:20.609Z,4.94
2023-01-23T22:06:47.048Z,4.94
2023-01-23T22:09:18.220Z,4.95
2023-01-23T22:11:45.492Z,4.94
2023-01-23T22:14:11.839Z,4.95
2023-01-23T22:16:53.826Z,4.95
2023-01-23T22:19:25.041Z,4.97
2023-01-23T22:21:55.175Z,4.97
2023-01-23T22:24:21.893Z,4.98
2023-01-23T22:26:48.453Z,4.98
2023-01-23T22:29:15.209Z,4.98
2023-01-23T22:31:41.732Z,4.99
2023-01-23T22:34:08.231Z,5.01
2023-01-23T22:36:34.737Z,5.01
2023-01-23T22:39:01.115Z,5.03
2023-01-23T22:41:28.507Z,5.04
2023-01-23T22:43:56.551Z,5.06
2023-01-23T22:46:23.655Z,5.06
2023-01-23T22:48:50.645Z,5.08
2023-01-23T22:51:24.522Z,5.10
2023-01-23T22:53:52.598Z,5.09
2023-01-23T22:56:19.511Z,5.10
2023-01-23T22:58:50.704Z,5.10
2023-01-23T23:01:17.939Z,5.10
2023-01-23T23:03:45.414Z,5.09
2023-01-23T23:06:13.986Z,5.10
2023-01-23T23:08:40.655Z,5.10
2023-01-23T23:11:18.545Z,5.12
2023-01-23T23:13:45.654Z,5.12
2023-01-23T23:16:18.326Z,5.13
2023-01-23T23:18:46.874Z,5.13
2023-01-23T23:21:15.972Z,5.14
2023-01-23T23:23:42.649Z,5.14
2023-01-23T23:26:10.348Z,5.15
2023-01-23T23:28:37.518Z,5.17
2023-01-23T23:31:04.587Z,5.18
2023-01-23T23:33:31.285Z,5.19
2023-01-23T23:35:58.025Z,5.22
2023-01-23T23:38:24.570Z,5.23
2023-01-23T23:40:57.980Z,5.24
2023-01-23T23:43:24.801Z,5.24
2023-01-23T23:45:52.410Z,5.24
2023-01-23T23:48:19.825Z,5.25
2023-01-23T23:50:47.423Z,5.27
2023-01-23T23:53:14.050Z,5.27
2023-01-23T23:55:40.370Z,5.27
2023-01-23T23:58:06.888Z,5.28
